EGKA

Shoreham Airport

Brighton, United Kingdom
METAR EGKA 251850Z 03009KT CAVOK 00/M06 Q1027
Observed Flight Rules
Feb-25 @ 18:50 UTC (8 hours ago) Visual Flight Rules
Wind Visibility Clouds
30° at 9 knots 10,000+ meters
  • Clear skies
Temperatures Readings
Current 0°C / 32°F
Dewpoint -6°C / 21°F
Humidity 64%
Altimeter 30.32" Hg
Pressure 1027 hPa
Elevation 2
METAR EGKA 251850Z 03009KT CAVOK 00/M06 Q1027
Observed Flight Rules
Feb-25 @ 18:50 UTC
(8 hours ago)
VFR
Wind Visibility
30° at 9 knots 10,000+ meters
Clouds
  • Clear skies
Temperature Dewpoint
0°C / 32°F -6°C / 21°F
Humidity Altimeter Pressure
64% 30.32" Hg 1027 hPa